Relevés horaires Bierset (Belgique)


Relevés horaires à Bierset - Mardi 19 Mai 2020
Heure UTC1 Température [°C] Vent [km/h] Hum. [%] Pres.4 [hPa] Visi. [Km] Nébu. [octa] Préc.5 [mm] Cond.
2m. Res. Ros. Dir.2 Vit. Moy. Raf.3
23:00 14.9 14.9 8.1 NNO 1.9 3.7 5.6 64 1023.2(0.7/3h) 30 0/8 -- --
22:00 15.4 15.4 8.5 N 3.7 3.7 5.6 63 1023.2(1.2/3h) 30 0/8 -- --
21:00 16.2 16.2 9.2 NNO 3.7 7.4 11.1 63 1022.9(1.3/3h) 30 0/8 -- --
20:00 17.9 17.9 8.3 NNO 5.6 7.4 11.1 53 1022.3(0.9/3h) 30 1/8 -- --
19:00 20.1 20.1 8.1 NO 5.6 7.4 11.1 46 1021.6(0.3/3h) 30 1/8 -- --
18:00 21.6 21.6 8.6 NO 7.4 7.4 13.0 43 1021.3(-0.2/3h) 30 1/8 0/12h
--
17:00 21.8 21.8 9.9 NO 5.6 7.4 11.1 47 1021(-0.7/3h) 30 2/8 -- --
16:00 22.4 22.4 10.0 NO 7.4 7.4 11.1 45 1021.1(-0.8/3h) 30 2/8 -- --
15:00 22.9 22.9 9.7 NNO 5.6 7.4 13.0 43 1021.3(-0.9/3h) 30 1/8 -- --
14:00 22.6 22.6 8.7 NO 7.4 7.4 13.0 41 1021.7(-0.9/3h) 30 1/8 -- --
13:00 22.6 22.6 8.1 NNO 7.4 7.4 13.0 39 1021.9(-0.8/3h) 30 1/8 -- --
12:00 21.0 21.0 8.4 NO 5.6 7.4 11.1 44 1022.4(-0.5/3h) 30 1/8 0/6h
--
11:00 20.3 20.3 7.8 O 5.6 5.6 11.1 44 1022.8(0.2/3h) 30 1/8 -- --
10:00 18.7 18.7 7.4 OSO 3.7 5.6 7.4 48 1023(-0.2/3h) 30 1/8 -- --
09:00 16.7 16.7 7.0 OSO 3.7 5.6 9.3 53 1023.2(0.1/3h) 30 4/8 -- --
08:00 14.1 14.1 5.1 SO 3.7 5.6 7.4 55 1023.4(0.5/3h) 30 5/8 -- --
07:00 12.5 12.5 3.3 OSO 3.7 5.6 9.3 53 1023.7(0.7/3h) 30 5/8 -- --
06:00 11.5 11.3 1.7 SSO 5.6 7.4 11.1 51 1023.5(0.2/3h) 30 3/8 0/12h
--
05:00 10.7 10.4 0.4 SSO 5.6 5.6 11.1 49 1023.3(-0.3/3h) 30 3/8 -- --
04:00 10.6 10.3 0.8 SO 5.6 5.6 9.3 51 1023.1(-0.7/3h) 30 2/8 -- --
03:00 11.3 11.1 0.9 SO 5.6 7.4 11.1 49 1023.3(-0.7/3h) 30 2/8 -- --
02:00 11.8 11.8 1.1 SO 3.7 5.6 9.3 48 1023.5(-0.6/3h) 30 2/8 -- --
01:00 11.0 11.0 1.3 OSO 3.7 5.6 5.6 51 1023.8(-0.2/3h) 30 2/8 -- --

1 Coordinated Universal Time. Actuellement il est 17:00 locale et 15:00 UTC.

2 Le vent souffle depuis la direction indiquée vers la direction oposée.

3 Les rafales max. sont disponible 40 min après l'heure du relevé.

4 Pour les stations d'altitude (plus de 600m) le géopotentiel du niveau le plus proche de la pression obligatoire est indiqué.

5 Les stations disposant d'un diffuseur peuvent indiquer "trace". Cela signifie que des précipitations ont touchés le sol mais que la quantité est inférieure à 0.1 mm.

Récapitulatif de la journée
Température [°C] Vent [km/h] Ensoleillement4 [h] Precipitations totale5 [mm] Pression [Hpa]
Min1 Max.2 Moy.3 Max. Min Max.
10.3 23.2 6.4 13.0 0 h 0 min 0 1021.0 1023.8

1 Température minimale relevée entre 18:00 UTC la veille et 18:00 UTC le jour donné.

2 Température maximale relevée entre 06:00 UTC le jour donné et 06:00 UTC le lendemain.

3 Vent moyen de la journée basé sur les relevés horaires.

4 Ensoleillement en heures relevé entre 06:00 UTC la veille et 06:00 UTC le jour donné.

5 Précipitations totales tombées entre 06:00 UTC la jour donné et 06:00 UTC le lendemain.

Graphiques horaires